createdAt,value
2018-06-27T00:01:04.168Z,71.10
2018-06-27T00:03:32.380Z,71.70
2018-06-27T00:06:00.605Z,70.30
2018-06-27T00:08:28.889Z,70.80
2018-06-27T00:10:57.065Z,71.00
2018-06-27T00:13:25.536Z,71.20
2018-06-27T00:15:54.055Z,71.30
2018-06-27T00:18:22.579Z,71.40
2018-06-27T00:20:51.158Z,71.50
2018-06-27T00:28:16.068Z,71.70
2018-06-27T00:30:44.581Z,71.50
2018-06-27T00:33:13.144Z,72.00
2018-06-27T00:35:41.683Z,72.20
2018-06-27T00:38:17.581Z,77.30
2018-06-27T00:43:15.594Z,72.70
2018-06-27T00:45:44.137Z,76.60
2018-06-27T00:48:12.620Z,72.10
2018-06-27T00:50:41.218Z,72.30
2018-06-27T00:53:09.745Z,72.80
2018-06-27T00:55:38.348Z,72.70
2018-06-27T00:58:07.036Z,72.90
2018-06-27T01:00:35.633Z,73.00
2018-06-27T01:03:04.207Z,73.50
2018-06-27T01:05:32.719Z,73.60
2018-06-27T01:08:01.247Z,73.60
2018-06-27T01:10:29.772Z,73.40
2018-06-27T01:12:58.380Z,73.40
2018-06-27T01:15:26.907Z,73.00
2018-06-27T01:17:56.889Z,72.80
2018-06-27T01:20:25.856Z,73.00
2018-06-27T01:25:22.546Z,73.30
2018-06-27T01:27:51.760Z,73.40
2018-06-27T01:30:20.235Z,73.10
2018-06-27T01:32:48.819Z,73.00
2018-06-27T01:35:17.407Z,73.30
2018-06-27T01:37:45.973Z,72.90
2018-06-27T01:40:14.526Z,73.60
2018-06-27T01:42:43.030Z,75.20
2018-06-27T01:45:11.546Z,74.30
2018-06-27T01:47:40.075Z,74.60
2018-06-27T01:50:08.636Z,74.60
2018-06-27T01:52:37.194Z,74.10
2018-06-27T01:55:05.690Z,73.80
2018-06-27T01:57:34.168Z,73.90
2018-06-27T02:00:02.678Z,74.00
2018-06-27T02:02:31.114Z,74.40
2018-06-27T02:04:59.534Z,74.70
2018-06-27T02:07:27.932Z,74.80
2018-06-27T02:09:56.419Z,75.30
2018-06-27T02:12:24.838Z,75.10
2018-06-27T02:14:53.318Z,75.40
2018-06-27T02:17:21.934Z,75.50
2018-06-27T02:22:18.497Z,75.70
2018-06-27T02:24:46.905Z,75.30
2018-06-27T02:27:15.415Z,75.00
2018-06-27T02:29:44.017Z,75.60
2018-06-27T02:32:12.427Z,75.50
2018-06-27T02:34:40.852Z,76.00
2018-06-27T02:37:09.298Z,76.30
2018-06-27T02:39:37.747Z,76.10
2018-06-27T02:44:34.235Z,75.70
2018-06-27T02:47:02.641Z,75.20
2018-06-27T02:49:31.103Z,75.80
2018-06-27T02:51:59.533Z,76.10
2018-06-27T02:56:56.218Z,76.90
2018-06-27T02:59:24.705Z,77.20
2018-06-27T03:01:53.202Z,77.10
2018-06-27T03:04:21.748Z,76.80
2018-06-27T03:06:50.232Z,76.70
2018-06-27T03:09:18.755Z,76.20
2018-06-27T03:11:47.270Z,77.00
2018-06-27T03:14:15.807Z,77.20
2018-06-27T03:16:44.285Z,76.10
2018-06-27T03:19:12.777Z,76.00
2018-06-27T03:21:41.301Z,76.20
2018-06-27T03:24:09.881Z,76.50
2018-06-27T03:26:38.421Z,77.10
2018-06-27T03:29:06.985Z,78.10
2018-06-27T03:31:35.470Z,78.60
2018-06-27T03:34:04.243Z,78.00
2018-06-27T03:36:32.748Z,77.20
2018-06-27T03:39:01.853Z,77.20
2018-06-27T03:41:30.339Z,77.20
2018-06-27T03:43:58.912Z,79.40
2018-06-27T03:46:27.469Z,76.50
2018-06-27T03:48:56.015Z,77.00
2018-06-27T03:51:24.566Z,77.40
2018-06-27T03:53:58.974Z,77.70
2018-06-27T03:56:28.182Z,77.70
2018-06-27T03:58:56.696Z,76.30
2018-06-27T04:01:25.212Z,76.10
2018-06-27T04:03:53.642Z,76.20
2018-06-27T04:06:22.064Z,76.20
2018-06-27T04:08:50.495Z,75.80
2018-06-27T04:11:18.975Z,76.40
2018-06-27T04:13:47.478Z,76.40
2018-06-27T04:16:15.976Z,76.40
2018-06-27T04:18:44.476Z,76.40
2018-06-27T04:21:12.953Z,75.90
2018-06-27T04:23:41.355Z,75.80
2018-06-27T04:26:09.874Z,76.60
2018-06-27T04:28:38.289Z,77.40
2018-06-27T04:31:07.201Z,78.70
2018-06-27T04:33:35.607Z,77.40
2018-06-27T04:36:04.151Z,77.10
2018-06-27T04:38:32.580Z,77.00
2018-06-27T04:41:01.041Z,77.90
2018-06-27T04:43:29.538Z,78.80
2018-06-27T04:45:58.014Z,78.30
2018-06-27T04:48:26.443Z,82.30
2018-06-27T04:50:54.942Z,78.80
2018-06-27T04:53:23.396Z,78.80
2018-06-27T04:55:51.784Z,78.30
2018-06-27T04:58:20.374Z,78.20
2018-06-27T05:00:48.980Z,78.10
2018-06-27T05:03:17.539Z,78.50
2018-06-27T05:05:46.168Z,78.40
2018-06-27T05:08:14.670Z,79.10
2018-06-27T05:10:43.168Z,79.50
2018-06-27T05:15:39.835Z,79.00
2018-06-27T05:18:08.379Z,78.60
2018-06-27T05:20:36.854Z,78.50
2018-06-27T05:23:05.474Z,77.60
2018-06-27T05:25:33.997Z,76.80
2018-06-27T05:28:02.581Z,76.50
2018-06-27T05:30:31.128Z,76.10
2018-06-27T05:32:59.672Z,75.20
2018-06-27T05:35:28.237Z,74.60
2018-06-27T05:37:56.764Z,73.80
2018-06-27T05:40:25.317Z,73.00
2018-06-27T05:42:53.863Z,72.90
2018-06-27T05:45:22.381Z,72.50
2018-06-27T05:47:50.876Z,71.90
2018-06-27T05:50:19.456Z,71.70
2018-06-27T05:57:44.482Z,72.30
2018-06-27T06:00:13.500Z,72.20
2018-06-27T06:02:42.155Z,71.10
2018-06-27T06:05:10.812Z,69.80
2018-06-27T06:07:39.316Z,69.50
2018-06-27T06:10:07.824Z,68.70
2018-06-27T06:12:36.414Z,68.30
2018-06-27T06:15:05.245Z,69.20
2018-06-27T06:17:33.828Z,68.00
2018-06-27T06:20:02.357Z,68.10
2018-06-27T06:24:59.092Z,68.70
2018-06-27T06:27:27.620Z,66.40
2018-06-27T06:29:56.194Z,66.20
2018-06-27T06:32:24.782Z,65.30
2018-06-27T06:37:21.448Z,63.90
2018-06-27T06:39:49.909Z,60.80
2018-06-27T06:42:18.490Z,61.00
2018-06-27T06:44:47.059Z,67.70
2018-06-27T06:47:15.620Z,61.90
2018-06-27T06:49:44.148Z,62.50
2018-06-27T06:52:12.769Z,61.10
2018-06-27T06:54:41.274Z,58.20
2018-06-27T06:57:09.743Z,59.00
2018-06-27T06:59:38.152Z,59.40
2018-06-27T07:02:06.577Z,59.40
2018-06-27T07:04:35.040Z,59.80
2018-06-27T07:07:03.499Z,60.90
2018-06-27T07:12:00.055Z,59.60
2018-06-27T07:14:28.528Z,58.90
2018-06-27T07:19:25.128Z,58.70
2018-06-27T07:21:53.604Z,59.30
2018-06-27T07:24:22.008Z,58.60
2018-06-27T07:26:50.484Z,58.70
2018-06-27T07:29:18.936Z,58.50
2018-06-27T07:31:47.375Z,59.00
2018-06-27T07:36:44.019Z,59.90
2018-06-27T07:39:12.735Z,59.00
2018-06-27T07:41:41.222Z,58.20
2018-06-27T07:46:37.787Z,58.00
2018-06-27T07:49:06.277Z,57.50
2018-06-27T07:51:34.735Z,55.40
2018-06-27T07:54:03.267Z,55.10
2018-06-27T07:56:31.727Z,54.80
2018-06-27T07:59:00.294Z,54.70
2018-06-27T08:01:28.841Z,54.00
2018-06-27T08:06:25.549Z,51.00
2018-06-27T08:08:54.090Z,50.80
2018-06-27T08:11:22.612Z,51.30
2018-06-27T08:13:51.144Z,52.70
2018-06-27T08:21:16.003Z,49.80
2018-06-27T08:23:44.557Z,50.40
2018-06-27T08:26:13.170Z,49.20
2018-06-27T08:28:41.709Z,48.40
2018-06-27T08:31:10.220Z,50.10
2018-06-27T08:33:38.778Z,48.00
2018-06-27T08:36:07.329Z,47.70
2018-06-27T08:38:35.868Z,48.20
2018-06-27T08:41:04.403Z,50.00
2018-06-27T08:43:32.945Z,49.40
2018-06-27T08:46:01.489Z,46.90
2018-06-27T08:50:58.211Z,45.80
2018-06-27T08:53:26.755Z,45.80
2018-06-27T08:55:55.305Z,45.00
2018-06-27T08:58:23.848Z,44.80
2018-06-27T09:00:52.346Z,47.50
2018-06-27T09:03:20.884Z,45.30
2018-06-27T09:05:49.348Z,45.50
2018-06-27T09:15:42.303Z,44.20
2018-06-27T09:18:10.831Z,44.50
2018-06-27T09:20:39.297Z,44.10
2018-06-27T09:25:35.979Z,45.90
2018-06-27T09:28:04.485Z,42.70
2018-06-27T09:30:32.979Z,44.30
2018-06-27T09:33:01.536Z,44.30
2018-06-27T09:35:30.070Z,46.60
2018-06-27T09:37:58.606Z,47.90
2018-06-27T09:40:27.090Z,49.20
2018-06-27T09:42:55.591Z,49.80
2018-06-27T09:45:24.129Z,50.70
2018-06-27T09:47:52.595Z,51.20
2018-06-27T09:52:49.256Z,56.80
2018-06-27T09:55:17.818Z,51.80
2018-06-27T09:57:46.281Z,52.20
2018-06-27T10:00:20.028Z,50.10
2018-06-27T10:02:48.557Z,49.80
2018-06-27T10:05:17.045Z,50.60
2018-06-27T10:07:45.713Z,48.20
2018-06-27T10:10:14.226Z,48.20
2018-06-27T10:12:42.719Z,47.30
2018-06-27T10:15:11.274Z,47.30
2018-06-27T10:17:39.780Z,45.10
2018-06-27T10:20:08.306Z,45.60
2018-06-27T10:22:36.869Z,46.20
2018-06-27T10:25:05.330Z,46.50
2018-06-27T10:27:34.003Z,45.20
2018-06-27T10:30:02.505Z,46.10
2018-06-27T10:34:59.326Z,47.20
2018-06-27T10:37:27.800Z,47.50
2018-06-27T10:39:56.294Z,49.00
2018-06-27T10:42:24.900Z,48.60
2018-06-27T10:44:53.414Z,47.70
2018-06-27T10:47:21.954Z,47.60
2018-06-27T10:49:50.510Z,48.40
2018-06-27T10:52:19.180Z,50.00
2018-06-27T10:54:51.701Z,50.40
2018-06-27T10:57:21.073Z,51.10
2018-06-27T10:59:50.220Z,54.60
2018-06-27T11:02:19.752Z,57.30
2018-06-27T11:04:48.321Z,58.90
2018-06-27T11:07:16.830Z,61.90
2018-06-27T11:09:45.380Z,59.80
2018-06-27T11:12:13.865Z,59.20
2018-06-27T11:14:42.416Z,58.90
2018-06-27T11:19:39.150Z,61.90
2018-06-27T11:22:07.645Z,63.20
2018-06-27T11:24:36.163Z,61.50
2018-06-27T11:27:04.865Z,56.90
2018-06-27T11:29:33.294Z,62.40
2018-06-27T11:32:01.880Z,58.40
2018-06-27T11:34:30.364Z,56.90
2018-06-27T11:41:55.262Z,53.70
2018-06-27T11:44:23.810Z,55.50
2018-06-27T11:49:20.494Z,53.60
2018-06-27T11:51:49.038Z,53.30
2018-06-27T11:54:17.551Z,54.20
2018-06-27T11:56:46.079Z,53.90
2018-06-27T11:59:14.613Z,57.30
2018-06-27T12:01:43.100Z,56.40
2018-06-27T12:04:11.644Z,60.00
2018-06-27T12:09:09.769Z,63.00
2018-06-27T12:11:38.312Z,58.40
2018-06-27T12:14:06.891Z,63.50
2018-06-27T12:19:03.509Z,60.20
2018-06-27T12:21:31.988Z,63.10
2018-06-27T12:24:00.555Z,54.00
2018-06-27T12:26:29.253Z,52.70
2018-06-27T12:28:57.795Z,55.90
2018-06-27T12:31:26.316Z,60.40
2018-06-27T12:33:54.823Z,65.90
2018-06-27T12:38:51.524Z,58.80
2018-06-27T12:41:20.052Z,59.20
2018-06-27T12:43:48.651Z,58.70
2018-06-27T12:48:45.423Z,65.00
2018-06-27T12:51:14.097Z,63.00
2018-06-27T12:53:42.667Z,57.90
2018-06-27T12:58:39.364Z,56.00
2018-06-27T13:01:07.936Z,56.60
2018-06-27T13:03:36.507Z,57.50
2018-06-27T13:06:05.027Z,54.00
2018-06-27T13:08:33.531Z,55.70
2018-06-27T13:11:02.057Z,57.10
2018-06-27T13:13:30.565Z,57.10
2018-06-27T13:15:59.080Z,53.70
2018-06-27T13:18:27.622Z,55.70
2018-06-27T13:20:56.143Z,53.00
2018-06-27T13:23:24.625Z,51.80
2018-06-27T13:25:53.170Z,52.60
2018-06-27T13:28:21.610Z,51.60
2018-06-27T13:30:50.116Z,51.00
2018-06-27T13:33:18.380Z,50.80
2018-06-27T13:38:14.534Z,51.40
2018-06-27T13:40:42.758Z,49.10
2018-06-27T13:43:11.130Z,50.80
2018-06-27T13:45:39.344Z,52.80
2018-06-27T13:48:07.574Z,52.90
2018-06-27T13:50:35.797Z,52.70
2018-06-27T13:55:31.983Z,53.90
2018-06-27T13:58:00.150Z,52.60
2018-06-27T14:00:28.302Z,55.60
2018-06-27T14:02:56.486Z,53.10
2018-06-27T14:05:24.681Z,54.10
2018-06-27T14:07:52.896Z,53.70
2018-06-27T14:10:21.044Z,53.80
2018-06-27T14:12:49.221Z,54.90
2018-06-27T14:15:17.386Z,52.80
2018-06-27T14:17:45.552Z,51.30
2018-06-27T14:20:13.721Z,52.60
2018-06-27T14:22:41.896Z,50.60
2018-06-27T14:25:10.078Z,51.20
2018-06-27T14:27:38.234Z,51.60
2018-06-27T14:30:06.404Z,51.00
2018-06-27T14:32:34.574Z,51.90
2018-06-27T14:35:02.757Z,51.50
2018-06-27T14:37:30.930Z,50.70
2018-06-27T14:39:59.144Z,51.80
2018-06-27T14:42:27.266Z,50.40
2018-06-27T14:44:55.421Z,50.80
2018-06-27T14:49:51.507Z,49.40
2018-06-27T14:52:19.796Z,50.10
2018-06-27T14:54:48.971Z,49.80
2018-06-27T14:57:17.204Z,50.00
2018-06-27T14:59:45.654Z,49.40
2018-06-27T15:02:13.766Z,48.80
2018-06-27T15:04:41.961Z,59.60
2018-06-27T15:07:10.156Z,52.90
2018-06-27T15:12:06.409Z,49.00
2018-06-27T15:14:34.603Z,49.40
2018-06-27T15:17:02.760Z,49.40
2018-06-27T15:19:30.933Z,47.60
2018-06-27T15:21:59.091Z,48.70
2018-06-27T15:24:27.255Z,48.80
2018-06-27T15:26:55.420Z,47.70
2018-06-27T15:29:23.603Z,47.20
2018-06-27T15:31:51.781Z,48.60
2018-06-27T15:34:19.950Z,44.70
2018-06-27T15:36:48.101Z,46.20
2018-06-27T15:39:16.273Z,50.10
2018-06-27T15:41:44.456Z,52.50
2018-06-27T15:44:12.613Z,53.90
2018-06-27T15:49:09.677Z,55.80
2018-06-27T15:51:38.022Z,54.70
2018-06-27T15:54:06.195Z,56.10
2018-06-27T15:56:34.379Z,56.20
2018-06-27T15:59:02.578Z,55.70
2018-06-27T16:01:30.749Z,55.40
2018-06-27T16:06:26.927Z,61.40
2018-06-27T16:08:55.123Z,55.40
2018-06-27T16:11:23.300Z,54.90
2018-06-27T16:13:51.459Z,55.70
2018-06-27T16:16:19.628Z,55.70
2018-06-27T16:18:47.780Z,56.20
2018-06-27T16:21:15.963Z,57.30
2018-06-27T16:23:44.124Z,55.40
2018-06-27T16:26:12.282Z,55.50
2018-06-27T16:31:08.365Z,56.20
2018-06-27T16:33:36.543Z,55.70
2018-06-27T16:36:04.888Z,55.60
2018-06-27T16:38:33.049Z,54.90
2018-06-27T16:41:01.219Z,54.10
2018-06-27T16:43:29.445Z,53.50
2018-06-27T16:45:57.552Z,53.50
2018-06-27T16:48:25.722Z,54.80
2018-06-27T16:50:53.931Z,54.40
2018-06-27T16:53:22.078Z,54.20
2018-06-27T16:55:50.240Z,54.40
2018-06-27T16:58:18.462Z,54.10
2018-06-27T17:00:46.696Z,53.70
2018-06-27T17:03:14.914Z,61.40
2018-06-27T17:05:43.157Z,53.10
2018-06-27T17:10:39.418Z,53.20
2018-06-27T17:13:07.638Z,53.50
2018-06-27T17:15:35.846Z,53.40
2018-06-27T17:20:32.046Z,54.10
2018-06-27T17:23:00.271Z,54.30
2018-06-27T17:25:28.489Z,54.50
2018-06-27T17:27:56.706Z,55.10
2018-06-27T17:30:24.960Z,55.10
2018-06-27T17:32:53.171Z,55.10
2018-06-27T17:35:21.373Z,55.20
2018-06-27T17:37:49.576Z,56.00
2018-06-27T17:40:17.838Z,55.80
2018-06-27T17:42:46.041Z,55.70
2018-06-27T17:45:14.269Z,55.60
2018-06-27T17:47:42.488Z,56.10
2018-06-27T17:50:10.689Z,55.40
2018-06-27T17:55:06.859Z,54.20
2018-06-27T17:57:35.083Z,54.50
2018-06-27T18:00:03.327Z,54.30
2018-06-27T18:02:31.549Z,54.50
2018-06-27T18:04:59.758Z,54.50
2018-06-27T18:07:27.967Z,53.80
2018-06-27T18:09:56.180Z,54.20
2018-06-27T18:12:24.405Z,54.10
2018-06-27T18:14:52.629Z,54.60
2018-06-27T18:19:48.999Z,54.30
2018-06-27T18:22:17.225Z,53.80
2018-06-27T18:24:45.442Z,54.40
2018-06-27T18:27:13.672Z,54.00
2018-06-27T18:29:41.891Z,54.20
2018-06-27T18:32:10.106Z,54.30
2018-06-27T18:34:38.318Z,54.70
2018-06-27T18:39:34.505Z,54.30
2018-06-27T18:42:02.715Z,54.00
2018-06-27T18:44:30.929Z,53.90
2018-06-27T18:47:00.488Z,54.60
2018-06-27T18:49:28.719Z,53.80
2018-06-27T18:51:56.945Z,53.80
2018-06-27T18:54:25.200Z,54.60
2018-06-27T18:56:53.434Z,55.20
2018-06-27T18:59:21.859Z,55.60
2018-06-27T19:01:50.292Z,55.90
2018-06-27T19:04:18.521Z,55.90
2018-06-27T19:06:46.737Z,56.30
2018-06-27T19:09:14.961Z,56.60
2018-06-27T19:11:43.187Z,56.50
2018-06-27T19:14:11.406Z,56.40
2018-06-27T19:16:39.690Z,56.30
2018-06-27T19:19:07.909Z,55.80
2018-06-27T19:24:04.168Z,57.20
2018-06-27T19:26:32.402Z,58.10
2018-06-27T19:29:00.601Z,58.80
2018-06-27T19:31:28.834Z,59.10
2018-06-27T19:33:57.051Z,59.50
2018-06-27T19:36:25.468Z,59.40
2018-06-27T19:38:53.682Z,59.30
2018-06-27T19:41:22.026Z,59.50
2018-06-27T19:43:50.135Z,59.70
2018-06-27T19:46:18.359Z,59.90
2018-06-27T19:48:46.571Z,59.90
2018-06-27T19:51:14.792Z,61.10
2018-06-27T19:53:43.022Z,61.50
2018-06-27T19:56:11.228Z,61.90
2018-06-27T19:58:39.375Z,61.30
2018-06-27T20:01:07.574Z,61.00
2018-06-27T20:03:35.746Z,61.60
2018-06-27T20:08:31.834Z,62.40
2018-06-27T20:11:00.023Z,63.00
2018-06-27T20:13:28.192Z,63.20
2018-06-27T20:15:56.375Z,62.70
2018-06-27T20:18:24.540Z,63.40
2018-06-27T20:20:52.711Z,63.20
2018-06-27T20:23:20.938Z,63.80
2018-06-27T20:25:49.113Z,63.80
2018-06-27T20:28:17.272Z,63.90
2018-06-27T20:33:13.357Z,64.10
2018-06-27T20:35:41.895Z,64.40
2018-06-27T20:38:10.086Z,65.00
2018-06-27T20:40:38.260Z,65.40
2018-06-27T20:43:06.485Z,65.80
2018-06-27T20:45:34.661Z,66.20
2018-06-27T20:48:02.832Z,66.60
2018-06-27T20:50:31.147Z,66.40
2018-06-27T20:55:27.257Z,66.90
2018-06-27T20:57:55.453Z,66.90
2018-06-27T21:02:51.544Z,67.70
2018-06-27T21:05:19.705Z,67.50
2018-06-27T21:07:47.882Z,67.50
2018-06-27T21:10:16.036Z,67.60
2018-06-27T21:12:44.199Z,67.80
2018-06-27T21:15:12.404Z,68.00
2018-06-27T21:17:40.580Z,68.00
2018-06-27T21:20:08.799Z,68.00
2018-06-27T21:22:36.912Z,67.70
2018-06-27T21:25:05.108Z,67.50
2018-06-27T21:27:33.441Z,67.60
2018-06-27T21:30:01.593Z,67.50
2018-06-27T21:32:29.756Z,67.70
2018-06-27T21:34:58.063Z,68.20
2018-06-27T21:39:54.161Z,68.10
2018-06-27T21:42:22.353Z,68.00
2018-06-27T21:44:50.535Z,68.10
2018-06-27T21:47:18.698Z,68.00
2018-06-27T21:49:46.845Z,67.60
2018-06-27T21:52:15.009Z,67.30
2018-06-27T21:54:43.169Z,67.20
2018-06-27T21:57:11.498Z,67.30
2018-06-27T21:59:39.772Z,67.50
2018-06-27T22:02:08.407Z,66.70
2018-06-27T22:04:36.623Z,66.90
2018-06-27T22:07:04.858Z,67.40
2018-06-27T22:09:33.069Z,67.80
2018-06-27T22:12:01.319Z,67.90
2018-06-27T22:14:30.358Z,68.00
2018-06-27T22:16:58.569Z,69.80
2018-06-27T22:19:26.848Z,68.50
2018-06-27T22:21:55.066Z,69.00
2018-06-27T22:24:23.290Z,69.10
2018-06-27T22:26:51.499Z,68.30
2018-06-27T22:29:19.777Z,68.80
2018-06-27T22:31:48.005Z,69.40
2018-06-27T22:34:16.216Z,69.40
2018-06-27T22:36:44.440Z,69.00
2018-06-27T22:39:12.791Z,68.30
2018-06-27T22:41:41.336Z,67.60
2018-06-27T22:44:09.508Z,67.30
2018-06-27T22:46:37.887Z,66.90
2018-06-27T22:49:06.119Z,68.30
2018-06-27T22:51:34.340Z,69.00
2018-06-27T22:54:02.558Z,69.10
2018-06-27T22:56:30.780Z,69.20
2018-06-27T22:58:58.990Z,68.90
2018-06-27T23:01:27.179Z,69.90
2018-06-27T23:03:55.785Z,70.40
2018-06-27T23:06:24.053Z,70.50
2018-06-27T23:08:52.308Z,71.10
2018-06-27T23:11:20.547Z,71.80
2018-06-27T23:13:48.771Z,72.20
2018-06-27T23:16:16.977Z,73.30
2018-06-27T23:18:45.207Z,75.70
2018-06-27T23:21:13.414Z,72.80
2018-06-27T23:26:09.613Z,72.20
2018-06-27T23:28:37.839Z,72.10
2018-06-27T23:33:41.371Z,72.10
2018-06-27T23:36:09.585Z,72.00
2018-06-27T23:38:37.796Z,72.10
2018-06-27T23:41:06.035Z,72.10
2018-06-27T23:43:34.251Z,72.20
2018-06-27T23:46:02.465Z,72.30
2018-06-27T23:48:30.692Z,72.50
2018-06-27T23:50:58.903Z,72.70
2018-06-27T23:53:27.112Z,72.40
2018-06-27T23:55:55.336Z,72.20
2018-06-27T23:58:23.509Z,72.40
